KEDE/EDE METAR and TAF weather

Enter ICAO airport designator
Station Type Date Time Source
KEDE METAR 2021/09/16 11:35 UTC NOAA

KEDE 161135Z AUTO 00000KT 10SM CLR 22/22 A3008 RMK AO2 T02170217


Station Type Date Time Source
KEDE Decoded METAR 2021/09/16 11:35 UTC NOAA

Edenton, Northeastern Regional Airport, NC, United States (KEDE) 36-01-40N 076-34-02W
Sep 16, 2021 - 07:35 AM EDT / 2021.09.16 1135 UTC
Wind: Calm:0
Visibility: 10 mile(s):0
Sky conditions: clear
Temperature: 71.1 F (21.7 C)
Dew Point: 71.1 F (21.7 C)
Relative Humidity: 100%
Pressure (altimeter): 30.08 in. Hg (1018 hPa)
ob: KEDE 161135Z AUTO 00000KT 10SM CLR 22/22 A3008 RMK AO2 T02170217
cycle: 11

Station Type Date Time Source
KEDE TAF UTC NOAA

Error!

Example: see airport list